Time;durP1;ratioP1;P1;durP2;ratioP2;P2;SDS_P1;SDS_P2;PMS_P1;PMS_P2;Temp;Humidity;BMP_temperature;BMP_pressure;BME280_temperature;BME280_humidity;BME280_pressure;Samples;Min_cycle;Max_cycle;Signal;HPM_P1;HPM_P2
2023/06/01 00:02:13;;;;;;;9.50;4.40;;;13.20;99.90;;;;;;4990113;28;20086;-40
2023/06/01 00:04:41;;;;;;;21.92;6.15;;;13.20;99.90;;;;;;4986371;28;20096;-42
2023/06/01 00:07:08;;;;;;;14.90;4.88;;;13.30;99.90;;;;;;4973196;28;20055;-39
2023/06/01 00:09:34;;;;;;;12.82;5.63;;;13.30;99.90;;;;;;4978212;28;20082;-42
2023/06/01 00:12:01;;;;;;;15.98;4.88;;;13.30;99.90;;;;;;4981136;28;20081;-40
2023/06/01 00:14:28;;;;;;;17.67;5.38;;;13.30;99.90;;;;;;4991240;28;20050;-41
2023/06/01 00:16:56;;;;;;;17.65;5.47;;;13.40;99.90;;;;;;4978091;28;20383;-40
2023/06/01 00:19:25;;;;;;;14.43;5.80;;;13.30;99.90;;;;;;4991805;28;20042;-41
2023/06/01 00:21:53;;;;;;;14.90;5.05;;;13.30;99.90;;;;;;4987921;28;20073;-42
2023/06/01 00:24:20;;;;;;;17.70;5.32;;;13.40;99.90;;;;;;4992969;28;20101;-42
2023/06/01 00:26:47;;;;;;;16.60;5.65;;;13.30;99.90;;;;;;4991157;28;20058;-41
2023/06/01 00:29:14;;;;;;;16.65;5.40;;;13.30;99.90;;;;;;4988348;28;20490;-36
2023/06/01 00:31:41;;;;;;;13.75;5.15;;;13.20;99.90;;;;;;4985919;28;20046;-42
2023/06/01 00:34:09;;;;;;;14.57;5.65;;;13.20;99.90;;;;;;4981010;28;20101;-37
2023/06/01 00:36:36;;;;;;;13.50;5.15;;;13.20;99.90;;;;;;4992239;28;20486;-42
2023/06/01 00:39:03;;;;;;;13.38;5.45;;;13.20;99.90;;;;;;4991770;28;20060;-41
2023/06/01 00:41:30;;;;;;;11.98;5.15;;;13.20;99.90;;;;;;4991340;28;20133;-40
2023/06/01 00:43:57;;;;;;;11.73;5.25;;;13.10;99.90;;;;;;4991668;28;20082;-41
2023/06/01 00:46:24;;;;;;;16.40;5.15;;;13.10;99.90;;;;;;4990510;28;20097;-42
2023/06/01 00:48:51;;;;;;;12.10;5.70;;;13.10;99.90;;;;;;4991644;28;20054;-41
2023/06/01 00:51:19;;;;;;;17.70;6.18;;;13.20;99.90;;;;;;4983398;28;20057;-40
2023/06/01 00:53:46;;;;;;;17.30;5.90;;;13.20;99.90;;;;;;4973257;28;20499;-42
2023/06/01 00:56:13;;;;;;;14.77;5.78;;;13.10;99.90;;;;;;4981640;28;20390;-43
2023/06/01 00:58:39;;;;;;;13.38;5.10;;;13.10;99.90;;;;;;4987922;28;20054;-41
2023/06/01 01:01:07;;;;;;;18.02;5.28;;;13.10;99.90;;;;;;4985824;28;20133;-43
2023/06/01 01:03:34;;;;;;;14.43;5.82;;;13.10;99.90;;;;;;4981705;28;20077;-40
2023/06/01 01:06:11;;;;;;;13.88;5.45;;;13.00;99.90;;;;;;4992697;28;20112;-40
2023/06/01 01:08:45;;;;;;;14.10;5.72;;;13.00;99.90;;;;;;4979785;28;20046;-40
2023/06/01 01:11:15;;;;;;;16.10;5.85;;;13.00;99.90;;;;;;4987987;28;20134;-44
2023/06/01 01:13:44;;;;;;;11.25;5.60;;;13.00;99.90;;;;;;4985088;28;20085;-41
2023/06/01 01:16:14;;;;;;;15.13;5.15;;;13.00;99.90;;;;;;4990166;28;20050;-44
2023/06/01 01:18:45;;;;;;;16.92;5.20;;;13.00;99.90;;;;;;4985809;28;20097;-44
2023/06/01 01:21:28;;;;;;;16.83;6.28;;;13.10;99.90;;;;;;4988971;28;20490;-43
2023/06/01 01:24:28;;;;;;;13.38;4.88;;;13.10;99.90;;;;;;4987991;28;20066;-44
2023/06/01 01:27:03;;;;;;;20.63;6.30;;;13.10;99.90;;;;;;4980458;28;20077;-41
2023/06/01 01:29:32;;;;;;;19.85;5.80;;;13.10;99.90;;;;;;4989750;28;20050;-37
2023/06/01 01:31:59;;;;;;;21.13;6.15;;;13.10;99.90;;;;;;4983944;28;20133;-40
2023/06/01 01:34:27;;;;;;;15.57;6.07;;;13.10;99.90;;;;;;4995267;28;20088;-41
2023/06/01 01:36:53;;;;;;;11.63;5.15;;;13.10;99.90;;;;;;4993762;28;20055;-42
2023/06/01 01:39:20;;;;;;;14.27;5.68;;;13.00;99.90;;;;;;4985090;28;20042;-39
2023/06/01 01:41:47;;;;;;;20.15;5.82;;;13.00;99.90;;;;;;4989853;28;20065;-42
2023/06/01 01:44:14;;;;;;;16.13;5.97;;;13.00;99.90;;;;;;4990774;28;20513;-41
2023/06/01 01:46:45;;;;;;;14.95;5.28;;;12.90;99.90;;;;;;4983047;28;20074;-39
2023/06/01 01:49:17;;;;;;;16.40;6.00;;;13.00;99.90;;;;;;4992642;28;20105;-41
2023/06/01 01:51:47;;;;;;;13.95;5.53;;;13.00;99.90;;;;;;4992653;28;20164;-41
2023/06/01 01:54:14;;;;;;;13.80;5.18;;;13.00;99.90;;;;;;4984152;28;20533;-40
2023/06/01 01:56:40;;;;;;;13.82;5.13;;;13.00;99.90;;;;;;4984713;28;20051;-41
2023/06/01 01:59:07;;;;;;;13.00;5.55;;;13.00;99.90;;;;;;4987967;28;20501;-39
2023/06/01 02:01:34;;;;;;;16.92;5.80;;;13.00;99.90;;;;;;4990075;28;20406;-43
2023/06/01 02:04:03;;;;;;;14.45;6.28;;;13.00;99.90;;;;;;4976395;28;20055;-42
2023/06/01 02:06:30;;;;;;;13.48;5.22;;;12.90;99.90;;;;;;4988846;28;20109;-38
2023/06/01 02:08:57;;;;;;;19.70;6.07;;;13.10;99.90;;;;;;4994294;28;20062;-41
2023/06/01 02:11:24;;;;;;;16.52;5.78;;;13.10;99.90;;;;;;4986654;28;20142;-40
2023/06/01 02:13:51;;;;;;;14.30;5.47;;;13.10;99.90;;;;;;4993572;28;20054;-40
2023/06/01 02:16:18;;;;;;;11.80;5.07;;;13.00;99.90;;;;;;4993455;28;20117;-44
2023/06/01 02:18:45;;;;;;;14.85;5.50;;;13.00;99.90;;;;;;4990490;28;20051;-41
2023/06/01 02:21:14;;;;;;;12.73;5.43;;;13.00;99.90;;;;;;4981537;28;20050;-42
2023/06/01 02:23:42;;;;;;;14.70;5.65;;;13.00;99.90;;;;;;4981966;28;20545;-40
2023/06/01 02:26:08;;;;;;;15.52;5.22;;;13.00;99.90;;;;;;4994377;28;20046;-40
2023/06/01 02:28:37;;;;;;;14.00;5.55;;;13.00;99.90;;;;;;4993000;28;20454;-42
2023/06/01 02:31:03;;;;;;;13.02;5.57;;;12.90;99.90;;;;;;4977887;28;20130;-41
2023/06/01 02:33:30;;;;;;;15.95;5.20;;;12.90;99.90;;;;;;4976358;28;20423;-42
2023/06/01 02:35:57;;;;;;;13.05;5.10;;;12.90;99.90;;;;;;4976644;28;20078;-42
2023/06/01 02:38:25;;;;;;;15.05;5.45;;;12.80;99.90;;;;;;4976943;28;20093;-41
2023/06/01 02:40:52;;;;;;;12.23;5.18;;;12.90;99.90;;;;;;4981891;28;20137;-42
2023/06/01 02:43:19;;;;;;;12.25;5.22;;;12.80;99.90;;;;;;4990976;28;20085;-38
2023/06/01 02:45:46;;;;;;;13.32;5.45;;;12.80;99.90;;;;;;4992837;28;20054;-43
2023/06/01 02:48:14;;;;;;;16.08;5.40;;;12.80;99.90;;;;;;4986823;28;20406;-42
2023/06/01 02:50:41;;;;;;;19.33;5.70;;;12.90;99.90;;;;;;4987644;28;20051;-42
2023/06/01 02:53:07;;;;;;;13.82;5.20;;;12.80;99.90;;;;;;4993005;28;20137;-39
2023/06/01 02:55:35;;;;;;;16.23;6.03;;;12.70;99.90;;;;;;4983945;28;20444;-40
2023/06/01 02:58:02;;;;;;;15.75;6.15;;;12.70;99.90;;;;;;4987631;28;20093;-39
2023/06/01 03:00:29;;;;;;;15.02;5.97;;;12.60;99.90;;;;;;4991644;28;20054;-37
2023/06/01 03:02:56;;;;;;;17.70;5.65;;;12.60;99.90;;;;;;4989316;28;20418;-38
2023/06/01 03:05:23;;;;;;;15.25;5.78;;;12.60;99.90;;;;;;4988926;28;20461;-42
2023/06/01 03:07:50;;;;;;;16.08;5.40;;;12.60;99.90;;;;;;4993922;28;20054;-39
2023/06/01 03:10:17;;;;;;;11.80;5.30;;;12.50;99.90;;;;;;4984696;28;20142;-38
2023/06/01 03:12:45;;;;;;;10.90;5.13;;;12.50;99.90;;;;;;4987536;28;20082;-41
2023/06/01 03:15:12;;;;;;;13.60;5.85;;;12.50;99.90;;;;;;4993611;28;20082;-40
2023/06/01 03:17:39;;;;;;;13.63;5.15;;;12.50;99.90;;;;;;4992581;28;20054;-44
2023/06/01 03:20:14;;;;;;;14.57;5.35;;;12.50;99.90;;;;;;4986230;28;20058;-45
2023/06/01 03:22:42;;;;;;;17.05;4.97;;;12.50;99.90;;;;;;4993494;28;20388;-41
2023/06/01 03:25:09;;;;;;;14.75;5.18;;;12.40;99.90;;;;;;4992207;28;20061;-38
2023/06/01 03:27:36;;;;;;;11.57;5.07;;;12.40;99.90;;;;;;4988599;28;20085;-38
2023/06/01 03:30:09;;;;;;;11.15;5.70;;;12.40;99.90;;;;;;4988382;28;20133;-38
2023/06/01 03:32:36;;;;;;;10.80;5.25;;;12.50;99.90;;;;;;4993802;28;20125;-41
2023/06/01 03:35:04;;;;;;;13.63;4.85;;;12.50;99.90;;;;;;4985001;28;20130;-40
2023/06/01 03:37:30;;;;;;;11.32;5.20;;;12.50;99.90;;;;;;4988302;28;20047;-42
2023/06/01 03:39:57;;;;;;;18.92;7.55;;;12.50;99.90;;;;;;4982290;28;20073;-38
2023/06/01 03:42:24;;;;;;;13.38;5.28;;;12.50;99.90;;;;;;4991182;28;20058;-41
2023/06/01 03:44:51;;;;;;;10.60;5.28;;;12.60;99.90;;;;;;4983266;28;20483;-40
2023/06/01 03:47:19;;;;;;;10.30;4.63;;;12.60;99.90;;;;;;4979004;28;22340;-42
2023/06/01 03:49:46;;;;;;;8.50;4.07;;;12.60;99.90;;;;;;5001154;28;20462;-43
2023/06/01 03:52:14;;;;;;;10.65;4.63;;;12.50;99.90;;;;;;4978839;28;20058;-41
2023/06/01 03:54:41;;;;;;;14.25;4.63;;;12.50;99.90;;;;;;4979220;28;20058;-42
2023/06/01 03:57:08;;;;;;;12.68;4.60;;;12.50;99.90;;;;;;4990281;28;20556;-40
2023/06/01 03:59:35;;;;;;;8.15;3.60;;;12.40;99.90;;;;;;4983606;28;20042;-42
2023/06/01 04:02:02;;;;;;;12.88;4.20;;;12.50;99.90;;;;;;4976125;28;20109;-42
2023/06/01 04:04:32;;;;;;;7.90;3.75;;;12.50;99.90;;;;;;4987711;28;20057;-40
2023/06/01 04:07:00;;;;;;;10.70;4.03;;;12.50;99.90;;;;;;4982522;28;20062;-42
2023/06/01 04:09:27;;;;;;;12.15;3.60;;;12.50;99.90;;;;;;4984761;28;20584;-39
2023/06/01 04:11:55;;;;;;;10.02;3.50;;;12.50;99.90;;;;;;4988909;28;20108;-40
2023/06/01 04:14:22;;;;;;;9.63;3.63;;;12.60;99.90;;;;;;4985746;28;20141;-42
2023/06/01 04:16:48;;;;;;;10.98;4.43;;;12.60;99.90;;;;;;4985538;28;20055;-38
2023/06/01 04:19:15;;;;;;;12.82;4.32;;;12.70;99.90;;;;;;4990077;28;20184;-38
2023/06/01 04:21:44;;;;;;;15.20;4.43;;;12.70;99.90;;;;;;4990771;28;20542;-42
2023/06/01 04:24:10;;;;;;;7.55;3.70;;;12.70;99.90;;;;;;4990926;28;20054;-43
2023/06/01 04:26:37;;;;;;;10.82;3.97;;;12.70;99.90;;;;;;4989663;28;20058;-40
2023/06/01 04:29:05;;;;;;;11.85;4.53;;;12.70;99.90;;;;;;4990201;28;20495;-41
2023/06/01 04:31:32;;;;;;;11.73;4.57;;;12.70;99.90;;;;;;4989856;28;20133;-37
2023/06/01 04:34:01;;;;;;;13.07;4.75;;;12.70;99.90;;;;;;4991852;28;20081;-42
2023/06/01 04:36:28;;;;;;;14.23;5.53;;;12.70;99.90;;;;;;4991939;28;20047;-42
2023/06/01 04:38:57;;;;;;;15.40;4.85;;;12.70;99.90;;;;;;4992551;28;20094;-39
2023/06/01 04:41:24;;;;;;;12.88;4.50;;;12.70;99.90;;;;;;4991590;28;20061;-42
2023/06/01 04:43:52;;;;;;;11.10;4.35;;;12.70;99.90;;;;;;4991304;28;20084;-36
2023/06/01 04:46:20;;;;;;;8.93;4.15;;;12.70;99.90;;;;;;4990604;28;20517;-42
2023/06/01 04:48:47;;;;;;;12.18;4.68;;;12.70;99.90;;;;;;4989857;28;20049;-41
2023/06/01 04:51:19;;;;;;;12.90;4.35;;;12.70;99.90;;;;;;4992551;28;20070;-39
2023/06/01 04:53:49;;;;;;;17.17;4.90;;;12.70;99.90;;;;;;4976353;28;20394;-41
2023/06/01 04:56:18;;;;;;;12.18;4.53;;;12.70;99.90;;;;;;4973831;28;20134;-41
2023/06/01 04:58:47;;;;;;;13.10;4.72;;;12.70;99.90;;;;;;4981449;28;20065;-42
2023/06/01 05:01:15;;;;;;;15.48;5.20;;;12.70;99.90;;;;;;4988743;28;20050;-42
2023/06/01 05:03:42;;;;;;;13.90;4.82;;;12.70;99.90;;;;;;4981915;28;20042;-40
2023/06/01 05:06:10;;;;;;;12.73;5.40;;;12.70;99.90;;;;;;4990442;28;20057;-39
2023/06/01 05:08:37;;;;;;;13.00;5.00;;;12.70;99.90;;;;;;4980209;28;20488;-42
2023/06/01 05:11:04;;;;;;;15.38;5.30;;;12.70;99.90;;;;;;4978781;28;20065;-42
2023/06/01 05:13:32;;;;;;;13.63;4.97;;;12.70;99.90;;;;;;4989527;28;20050;-42
2023/06/01 05:15:59;;;;;;;14.15;5.15;;;12.80;99.90;;;;;;4994184;28;20046;-41
2023/06/01 05:18:26;;;;;;;15.45;5.40;;;12.80;99.90;;;;;;4995013;28;20054;-42
2023/06/01 05:20:53;;;;;;;15.98;5.57;;;12.80;99.90;;;;;;4991170;28;20054;-37
2023/06/01 05:23:19;;;;;;;16.33;5.13;;;12.70;99.90;;;;;;4994538;28;20089;-42
2023/06/01 05:25:46;;;;;;;18.33;5.78;;;12.70;99.90;;;;;;4995893;28;20105;-41
2023/06/01 05:28:13;;;;;;;16.65;5.38;;;12.70;99.90;;;;;;4993651;28;20058;-41
2023/06/01 05:30:41;;;;;;;10.82;4.65;;;12.80;99.90;;;;;;4983898;28;20078;-40
2023/06/01 05:33:08;;;;;;;15.57;4.75;;;12.60;99.90;;;;;;4988793;28;20045;-37
2023/06/01 05:35:35;;;;;;;12.27;5.15;;;12.60;99.90;;;;;;4986349;28;20051;-41
2023/06/01 05:38:02;;;;;;;15.63;5.55;;;12.60;99.90;;;;;;4990591;28;20569;-41
2023/06/01 05:40:28;;;;;;;12.30;4.75;;;12.60;99.90;;;;;;4993583;28;20051;-41
2023/06/01 05:42:55;;;;;;;16.52;5.78;;;12.60;99.90;;;;;;4979187;28;20478;-40
2023/06/01 05:45:22;;;;;;;14.38;5.53;;;12.70;99.90;;;;;;4989859;28;20058;-43
2023/06/01 05:47:50;;;;;;;13.70;5.20;;;12.80;99.90;;;;;;4987086;28;20133;-42
2023/06/01 05:50:17;;;;;;;12.70;5.05;;;12.80;99.90;;;;;;4983824;28;20081;-42
2023/06/01 05:52:44;;;;;;;12.93;5.38;;;12.80;99.90;;;;;;4984842;28;20448;-41
2023/06/01 05:55:10;;;;;;;11.35;5.15;;;12.80;99.90;;;;;;4992651;28;20112;-42
2023/06/01 05:57:37;;;;;;;11.73;4.68;;;12.80;99.90;;;;;;4977609;28;20078;-40
2023/06/01 06:00:09;;;;;;;15.38;5.25;;;12.90;99.90;;;;;;4985975;28;20042;-43
2023/06/01 06:02:36;;;;;;;13.50;5.00;;;12.90;99.90;;;;;;4989244;28;20062;-42
2023/06/01 06:05:05;;;;;;;14.50;4.97;;;12.90;99.90;;;;;;4984404;28;20073;-42
2023/06/01 06:07:32;;;;;;;15.63;5.70;;;12.90;99.90;;;;;;4995185;28;20062;-41
2023/06/01 06:09:59;;;;;;;12.25;5.00;;;13.00;99.90;;;;;;4994513;28;20054;-43
2023/06/01 06:12:26;;;;;;;9.20;4.40;;;13.00;99.90;;;;;;4994338;28;20064;-42
2023/06/01 06:14:53;;;;;;;17.10;4.97;;;13.00;99.90;;;;;;4994605;28;20109;-40
2023/06/01 06:17:20;;;;;;;14.10;5.05;;;13.10;99.90;;;;;;4993236;28;20058;-42
2023/06/01 06:19:47;;;;;;;11.65;5.45;;;13.10;99.90;;;;;;4995172;28;20050;-42
2023/06/01 06:22:15;;;;;;;13.27;5.18;;;13.10;99.90;;;;;;4994178;28;20394;-42
2023/06/01 06:24:42;;;;;;;14.15;5.38;;;13.10;99.90;;;;;;4995636;28;20077;-43
2023/06/01 06:27:10;;;;;;;11.23;4.60;;;13.10;99.90;;;;;;4994309;28;20052;-41
2023/06/01 06:29:36;;;;;;;15.30;4.60;;;13.10;99.90;;;;;;4994309;28;20398;-42
2023/06/01 06:32:04;;;;;;;16.30;5.28;;;13.10;99.90;;;;;;4994342;28;20054;-42
2023/06/01 06:34:35;;;;;;;11.50;4.80;;;13.10;99.90;;;;;;4993860;28;20050;-42
2023/06/01 06:37:03;;;;;;;12.68;4.28;;;13.10;99.90;;;;;;4994310;28;20054;-43
2023/06/01 06:39:31;;;;;;;9.68;4.00;;;13.20;99.90;;;;;;4995201;28;20046;-41
2023/06/01 06:41:58;;;;;;;11.35;4.38;;;13.20;99.90;;;;;;4995495;28;20046;-41
2023/06/01 06:44:26;;;;;;;7.15;4.22;;;13.10;99.90;;;;;;4995073;28;20454;-42
2023/06/01 06:46:52;;;;;;;12.32;4.60;;;13.30;99.90;;;;;;4994858;28;20054;-42
2023/06/01 06:49:19;;;;;;;11.25;4.18;;;13.30;99.90;;;;;;4993323;28;20483;-39
2023/06/01 06:51:46;;;;;;;11.20;4.45;;;13.30;99.90;;;;;;4994499;28;20467;-43
2023/06/01 06:54:13;;;;;;;9.02;4.10;;;13.30;99.90;;;;;;4994791;28;20060;-41
2023/06/01 06:56:41;;;;;;;10.60;4.20;;;13.30;99.90;;;;;;4994836;28;20491;-42
2023/06/01 06:59:08;;;;;;;10.00;4.40;;;13.40;99.90;;;;;;4993380;28;20133;-42
2023/06/01 07:01:37;;;;;;;11.60;4.15;;;13.40;99.90;;;;;;4993301;28;20141;-41
2023/06/01 07:04:04;;;;;;;9.23;3.85;;;13.40;99.90;;;;;;4994557;28;20495;-42
2023/06/01 07:06:32;;;;;;;12.55;4.07;;;13.50;99.90;;;;;;4993424;28;20089;-43
2023/06/01 07:08:59;;;;;;;10.45;4.13;;;13.50;99.90;;;;;;4993316;28;20046;-42
2023/06/01 07:11:26;;;;;;;12.38;4.13;;;13.50;99.90;;;;;;4993540;28;20058;-43
2023/06/01 07:13:57;;;;;;;16.23;4.53;;;13.60;99.90;;;;;;4994518;28;20060;-43
2023/06/01 07:16:24;;;;;;;13.32;4.35;;;13.60;99.90;;;;;;4993487;28;20050;-43
2023/06/01 07:18:51;;;;;;;11.07;3.85;;;13.70;99.90;;;;;;4994088;28;20479;-42
2023/06/01 07:21:18;;;;;;;9.60;4.05;;;13.70;99.90;;;;;;4994216;28;20491;-43
2023/06/01 07:23:45;;;;;;;15.95;4.55;;;13.70;99.90;;;;;;4994438;28;20050;-42
2023/06/01 07:26:12;;;;;;;9.48;4.25;;;13.80;99.90;;;;;;4994218;28;20109;-43
2023/06/01 07:28:38;;;;;;;10.88;4.88;;;13.70;99.90;;;;;;4992758;28;20128;-43
2023/06/01 07:31:07;;;;;;;10.27;4.55;;;13.80;99.90;;;;;;4993693;28;20113;-42
2023/06/01 07:33:35;;;;;;;11.15;4.32;;;13.80;99.90;;;;;;4992838;28;20054;-39
2023/06/01 07:36:03;;;;;;;10.38;4.10;;;13.90;99.90;;;;;;4993032;28;20058;-42
2023/06/01 07:38:31;;;;;;;14.82;4.80;;;13.90;99.90;;;;;;4994055;28;20054;-41
2023/06/01 07:40:57;;;;;;;11.05;4.22;;;14.00;99.90;;;;;;4994183;28;20486;-43
2023/06/01 07:43:24;;;;;;;11.95;4.15;;;14.00;99.90;;;;;;4992781;28;20062;-40
2023/06/01 07:45:51;;;;;;;8.50;3.70;;;14.00;99.90;;;;;;4994014;28;20113;-42
2023/06/01 07:48:19;;;;;;;9.25;3.95;;;14.00;99.90;;;;;;4993433;28;20112;-41
2023/06/01 07:50:46;;;;;;;11.43;3.88;;;14.10;99.90;;;;;;4993692;28;20089;-43
2023/06/01 07:53:13;;;;;;;13.32;3.90;;;14.20;99.90;;;;;;4992845;28;20085;-41
2023/06/01 07:55:40;;;;;;;11.38;3.70;;;14.20;99.90;;;;;;4992675;28;20058;-43
2023/06/01 07:58:06;;;;;;;7.80;3.28;;;14.20;99.90;;;;;;4992840;28;20438;-43
2023/06/01 08:00:34;;;;;;;8.30;3.22;;;14.30;99.90;;;;;;4993948;28;20454;-43
2023/06/01 08:03:05;;;;;;;11.80;3.70;;;14.30;99.90;;;;;;4993419;28;20387;-43
2023/06/01 08:05:35;;;;;;;;;;;14.30;99.90;;;;;;4993354;28;20082;-43
2023/06/01 08:08:02;;;;;;;9.40;3.00;;;14.30;99.90;;;;;;4993515;28;19921;-43
2023/06/01 08:10:29;;;;;;;10.80;3.60;;;14.40;99.90;;;;;;4993472;28;20133;-43
2023/06/01 08:12:57;;;;;;;7.45;3.17;;;14.40;99.90;;;;;;4993512;28;20058;-40
2023/06/01 08:15:25;;;;;;;11.77;3.08;;;14.40;99.90;;;;;;4993197;28;20150;-43
2023/06/01 08:17:53;;;;;;;6.57;3.25;;;14.50;99.90;;;;;;4993498;28;20133;-43
2023/06/01 08:20:22;;;;;;;8.00;3.22;;;14.50;99.90;;;;;;4992279;28;20070;-42
2023/06/01 08:22:50;;;;;;;10.10;3.13;;;14.50;99.90;;;;;;4992377;28;20050;-42
2023/06/01 08:25:17;;;;;;;12.10;2.80;;;14.50;99.90;;;;;;4992317;28;20137;-41
2023/06/01 08:27:44;;;;;;;8.55;3.17;;;14.60;99.90;;;;;;4992115;28;20053;-42
2023/06/01 08:30:11;;;;;;;7.45;2.80;;;14.70;99.90;;;;;;4991595;28;20054;-42
2023/06/01 08:32:38;;;;;;;6.70;3.30;;;14.70;99.90;;;;;;4992994;28;20050;-41
2023/06/01 08:35:07;;;;;;;6.82;2.30;;;14.80;99.90;;;;;;4992101;28;20050;-42
2023/06/01 08:37:34;;;;;;;6.07;2.75;;;14.80;99.90;;;;;;4993008;28;20093;-43
2023/06/01 08:40:04;;;;;;;10.73;3.20;;;14.90;99.90;;;;;;4992973;28;20106;-43
2023/06/01 08:42:35;;;;;;;8.13;2.55;;;15.00;99.90;;;;;;4993195;28;20276;-39
2023/06/01 08:45:06;;;;;;;9.25;2.65;;;15.10;99.90;;;;;;4992400;28;20060;-43
2023/06/01 08:47:32;;;;;;;5.20;2.42;;;15.10;99.90;;;;;;4993172;28;20092;-42
2023/06/01 08:49:59;;;;;;;6.10;2.08;;;15.20;99.90;;;;;;4992989;28;20156;-41
2023/06/01 08:52:28;;;;;;;4.85;2.03;;;15.10;99.90;;;;;;4993095;28;20487;-40
2023/06/01 08:54:55;;;;;;;4.10;1.80;;;15.20;99.90;;;;;;4992878;28;20057;-42
2023/06/01 08:57:23;;;;;;;4.45;1.70;;;15.20;99.90;;;;;;4991725;28;20213;-37
2023/06/01 08:59:50;;;;;;;4.00;1.73;;;15.10;99.90;;;;;;4992242;28;20093;-43
2023/06/01 09:02:17;;;;;;;4.97;2.00;;;15.20;99.90;;;;;;4992821;28;20082;-41
2023/06/01 09:04:44;;;;;;;5.90;1.98;;;15.10;99.90;;;;;;4992600;28;20092;-42
2023/06/01 09:07:11;;;;;;;5.07;1.90;;;15.20;99.90;;;;;;4992722;28;20407;-43
2023/06/01 09:09:38;;;;;;;8.32;2.65;;;15.20;99.90;;;;;;4991588;28;20145;-42
2023/06/01 09:12:25;;;;;;;9.57;2.35;;;15.30;99.90;;;;;;4992550;28;20069;-43
2023/06/01 09:15:05;;;;;;;4.93;2.08;;;15.50;99.90;;;;;;4992673;28;20074;-42
2023/06/01 09:17:32;;;;;;;3.38;1.90;;;15.60;99.90;;;;;;4991703;28;20058;-42
2023/06/01 09:19:59;;;;;;;4.30;2.53;;;15.60;99.90;;;;;;4992724;28;20533;-43
2023/06/01 09:22:26;;;;;;;4.05;1.85;;;15.60;99.90;;;;;;4991882;28;20407;-43
2023/06/01 09:24:56;;;;;;;2.55;1.40;;;15.70;99.90;;;;;;4992801;28;20152;-40
2023/06/01 09:27:25;;;;;;;3.78;1.30;;;15.60;99.90;;;;;;4992621;28;20058;-42
2023/06/01 09:29:54;;;;;;;2.25;1.00;;;15.60;99.90;;;;;;4991410;28;20070;-43
2023/06/01 09:32:21;;;;;;;3.75;1.40;;;15.60;99.90;;;;;;4992514;28;20460;-43
2023/06/01 09:34:50;;;;;;;5.38;1.48;;;15.60;99.90;;;;;;4992486;28;20057;-44
2023/06/01 09:37:17;;;;;;;2.80;1.23;;;15.60;99.90;;;;;;4992424;28;20050;-43
2023/06/01 09:39:44;;;;;;;2.38;1.10;;;15.60;99.90;;;;;;4992485;28;20048;-42
2023/06/01 09:42:11;;;;;;;3.95;1.52;;;15.70;99.90;;;;;;4992491;28;20379;-43
2023/06/01 09:44:40;;;;;;;3.17;1.08;;;15.70;99.90;;;;;;4992678;28;20105;-43
2023/06/01 09:47:09;;;;;;;2.95;0.95;;;15.70;99.90;;;;;;4992633;28;20078;-42
2023/06/01 09:49:38;;;;;;;3.97;1.30;;;15.80;99.90;;;;;;4992313;28;20426;-43
2023/06/01 09:52:14;;;;;;;2.38;1.38;;;15.80;99.90;;;;;;4992482;28;20062;-42
2023/06/01 09:54:42;;;;;;;2.90;1.70;;;15.80;99.90;;;;;;4996294;28;20054;-43
2023/06/01 09:57:08;;;;;;;5.60;1.80;;;15.70;99.90;;;;;;4995804;28;20086;-42
2023/06/01 09:59:41;;;;;;;3.85;2.05;;;15.70;99.90;;;;;;4995509;28;20090;-43
2023/06/01 10:02:15;;;;;;;7.10;2.60;;;15.70;99.90;;;;;;4994922;28;20399;-39
2023/06/01 10:04:42;;;;;;;6.03;2.30;;;15.60;99.90;;;;;;4995716;28;20054;-43
2023/06/01 10:07:10;;;;;;;7.00;2.55;;;15.60;99.90;;;;;;4995686;28;20104;-41
2023/06/01 10:09:38;;;;;;;10.30;3.45;;;15.60;99.90;;;;;;4995803;28;20064;-43
2023/06/01 10:12:07;;;;;;;10.88;3.22;;;15.60;99.90;;;;;;4994578;28;20398;-42
2023/06/01 10:14:33;;;;;;;10.43;3.15;;;15.60;99.90;;;;;;4994921;28;20569;-43
2023/06/01 10:17:02;;;;;;;9.85;3.42;;;15.50;99.90;;;;;;4995493;28;20458;-42
2023/06/01 10:19:28;;;;;;;8.05;2.97;;;15.50;99.90;;;;;;4995537;28;20101;-42
2023/06/01 10:21:55;;;;;;;11.32;3.30;;;15.50;99.90;;;;;;4994503;28;20471;-43
2023/06/01 10:24:22;;;;;;;12.65;3.00;;;15.50;99.90;;;;;;4995439;28;20477;-43
2023/06/01 10:26:55;;;;;;;6.80;2.97;;;15.50;99.90;;;;;;4995160;28;20093;-43
2023/06/01 10:29:22;;;;;;;10.82;3.38;;;15.60;99.90;;;;;;4995350;28;20094;-43
2023/06/01 10:31:49;;;;;;;7.03;2.67;;;15.60;99.90;;;;;;4994303;28;20058;-43
2023/06/01 10:34:17;;;;;;;8.85;3.10;;;15.60;99.90;;;;;;4995088;28;20100;-41
2023/06/01 10:37:13;;;;;;;10.85;3.22;;;15.60;99.90;;;;;;4994002;28;20085;-43
2023/06/01 10:39:40;;;;;;;13.70;3.25;;;15.70;99.90;;;;;;4994193;28;20054;-43
2023/06/01 10:42:49;;;;;;;10.52;3.47;;;15.60;99.90;;;;;;4994786;28;20086;-43
2023/06/01 10:45:38;;;;;;;8.43;3.03;;;15.60;99.90;;;;;;4994099;28;20054;-45
2023/06/01 10:48:06;;;;;;;14.32;3.80;;;15.60;99.90;;;;;;4993629;28;20274;-42
2023/06/01 10:50:35;;;;;;;11.15;3.72;;;15.60;99.90;;;;;;4993559;28;20093;-43
2023/06/01 10:53:34;;;;;;;13.95;4.03;;;15.70;99.90;;;;;;4993920;28;20089;-43
2023/06/01 10:56:20;;;;;;;13.32;3.80;;;15.80;99.90;;;;;;4994970;28;20490;-43
2023/06/01 10:58:47;;;;;;;12.48;3.53;;;15.90;99.90;;;;;;4993848;28;20081;-43
2023/06/01 11:01:19;;;;;;;15.90;3.90;;;15.90;99.90;;;;;;4994833;28;20093;-43
2023/06/01 11:03:47;;;;;;;11.55;3.42;;;16.00;99.90;;;;;;4993657;28;20050;-43
2023/06/01 11:06:31;;;;;;;13.00;3.50;;;16.00;99.90;;;;;;4994371;28;20463;-44
2023/06/01 11:08:59;;;;;;;15.00;3.40;;;16.00;99.90;;;;;;4993572;28;20088;-45
2023/06/01 11:11:59;;;;;;;14.73;3.30;;;16.00;99.90;;;;;;4992958;28;20054;-43
2023/06/01 11:14:26;;;;;;;11.88;3.45;;;16.00;99.90;;;;;;4993592;28;20073;-43
2023/06/01 11:16:54;;;;;;;12.00;3.58;;;16.00;99.90;;;;;;4993345;28;20420;-43
2023/06/01 11:19:24;;;;;;;13.77;3.50;;;16.00;99.90;;;;;;4993313;28;20054;-43
2023/06/01 11:21:55;;;;;;;13.25;3.22;;;16.10;99.90;;;;;;4993279;28;20054;-43
2023/06/01 11:24:22;;;;;;;10.07;3.50;;;16.20;99.90;;;;;;4992994;28;20667;-43
2023/06/01 11:26:49;;;;;;;12.30;3.00;;;16.30;99.90;;;;;;4992969;28;20092;-43
2023/06/01 11:29:18;;;;;;;11.07;2.90;;;16.30;99.90;;;;;;4993227;28;20090;-42
2023/06/01 11:31:46;;;;;;;12.07;3.10;;;16.40;99.90;;;;;;4992914;28;20057;-43
2023/06/01 11:34:13;;;;;;;10.98;3.03;;;16.40;99.90;;;;;;4992949;28;20173;-42
2023/06/01 11:36:42;;;;;;;9.38;3.08;;;16.50;99.90;;;;;;4993772;28;20461;-44
2023/06/01 11:39:24;;;;;;;12.40;2.88;;;16.50;99.90;;;;;;4993628;28;20046;-43
2023/06/01 11:41:52;;;;;;;9.00;3.00;;;16.70;99.90;;;;;;4993083;28;20137;-41
2023/06/01 11:44:18;;;;;;;8.23;2.50;;;16.70;99.90;;;;;;4992463;28;20129;-44
2023/06/01 11:46:55;;;;;;;9.40;2.88;;;16.80;99.90;;;;;;4993804;28;20128;-43
2023/06/01 11:49:22;;;;;;;14.80;3.17;;;16.90;99.90;;;;;;4993524;28;20064;-43
2023/06/01 11:51:51;;;;;;;13.43;3.30;;;17.00;99.90;;;;;;4993970;28;20137;-43
2023/06/01 11:54:17;;;;;;;9.25;2.45;;;17.20;99.90;;;;;;4993344;28;20503;-42
2023/06/01 11:56:46;;;;;;;8.23;3.00;;;17.20;99.90;;;;;;4992634;28;20089;-42
2023/06/01 11:59:13;;;;;;;9.32;2.85;;;17.30;99.90;;;;;;4992345;28;20058;-43
2023/06/01 12:01:43;;;;;;;9.40;2.72;;;17.40;99.90;;;;;;4993462;28;20053;-43
2023/06/01 12:04:13;;;;;;;12.02;2.65;;;17.60;99.90;;;;;;4993290;28;20092;-43
2023/06/01 12:06:39;;;;;;;11.88;2.85;;;17.60;99.90;;;;;;4992298;28;20054;-43
2023/06/01 12:09:06;;;;;;;9.45;3.03;;;17.60;99.90;;;;;;4993295;28;20128;-44
2023/06/01 12:11:34;;;;;;;11.48;2.75;;;17.60;99.90;;;;;;4992086;28;20057;-45
2023/06/01 12:14:05;;;;;;;14.23;3.33;;;17.60;99.90;;;;;;4991976;28;20050;-45
2023/06/01 12:16:58;;;;;;;8.13;2.40;;;17.60;99.90;;;;;;4992026;28;20050;-43
2023/06/01 12:19:25;;;;;;;12.15;2.85;;;17.50;99.90;;;;;;4992276;28;20054;-44
2023/06/01 12:21:52;;;;;;;12.02;3.38;;;17.50;99.90;;;;;;4993014;28;20461;-42
2023/06/01 12:24:19;;;;;;;9.60;2.50;;;17.50;99.90;;;;;;4993139;28;20062;-45
2023/06/01 12:26:46;;;;;;;10.70;2.78;;;17.50;99.90;;;;;;4993236;28;20113;-45
2023/06/01 12:29:14;;;;;;;9.43;2.67;;;17.50;99.90;;;;;;4991737;28;20054;-42
2023/06/01 12:31:54;;;;;;;6.85;2.70;;;17.50;99.90;;;;;;4991651;28;20047;-42
2023/06/01 12:34:20;;;;;;;9.07;3.05;;;17.60;99.80;;;;;;4992001;28;20046;-43
2023/06/01 12:36:47;;;;;;;10.82;2.78;;;17.50;99.20;;;;;;4991694;28;20518;-43
2023/06/01 12:39:14;;;;;;;8.15;2.35;;;17.50;98.90;;;;;;4992889;28;20137;-43
2023/06/01 12:41:50;;;;;;;10.05;2.78;;;17.40;98.70;;;;;;4992928;28;20114;-42
2023/06/01 12:44:22;;;;;;;7.82;2.55;;;17.40;98.80;;;;;;4992847;28;20137;-42
2023/06/01 12:46:49;;;;;;;8.05;2.80;;;17.40;98.50;;;;;;4991893;28;20116;-44
2023/06/01 12:49:17;;;;;;;6.95;2.35;;;17.40;98.60;;;;;;4991832;28;20050;-43